Time;durP1;ratioP1;P1;durP2;ratioP2;P2;SDS_P1;SDS_P2;PMS_P1;PMS_P2;Temp;Humidity;BMP_temperature;BMP_pressure;BME280_temperature;BME280_humidity;BME280_pressure;Samples;Min_cycle;Max_cycle;Signal;HPM_P1;HPM_P2
2022/02/12 00:00:11;;;;;;;17.73;8.88;;;2.90;85.10;;;;;;6218121;23;20313;-85
2022/02/12 00:02:36;;;;;;;20.08;8.93;;;2.90;85.10;;;;;;6193310;23;20016;-84
2022/02/12 00:05:02;;;;;;;16.60;9.63;;;2.90;85.20;;;;;;6193199;23;20023;-85
2022/02/12 00:07:28;;;;;;;26.35;9.43;;;2.90;85.20;;;;;;6217720;23;20008;-85
2022/02/12 00:09:54;;;;;;;19.35;8.65;;;2.90;85.30;;;;;;6168488;23;20023;-84
2022/02/12 00:12:20;;;;;;;21.25;9.18;;;2.80;85.20;;;;;;6192808;23;20016;-85
2022/02/12 00:14:45;;;;;;;27.95;9.73;;;2.80;85.20;;;;;;6192668;23;20072;-84
2022/02/12 00:17:11;;;;;;;18.67;8.35;;;2.80;85.30;;;;;;6217864;23;20074;-85
2022/02/12 00:19:36;;;;;;;24.42;9.05;;;2.70;85.40;;;;;;6192742;23;20413;-84
2022/02/12 00:22:02;;;;;;;19.00;9.13;;;2.70;85.40;;;;;;6192934;23;20044;-85
2022/02/12 00:24:28;;;;;;;20.20;9.40;;;2.70;85.40;;;;;;6192224;23;20029;-84
2022/02/12 00:26:54;;;;;;;20.00;9.20;;;2.60;85.30;;;;;;6192920;23;20078;-85
2022/02/12 00:29:19;;;;;;;14.82;8.52;;;2.60;85.30;;;;;;6192133;23;20024;-85
2022/02/12 00:31:45;;;;;;;21.10;9.30;;;2.60;85.40;;;;;;6219692;23;20020;-85
2022/02/12 00:34:11;;;;;;;14.63;8.55;;;2.60;85.50;;;;;;6192682;23;20055;-85
2022/02/12 00:36:36;;;;;;;22.38;9.70;;;2.50;85.50;;;;;;6217971;23;20024;-84
2022/02/12 00:39:03;;;;;;;19.60;9.32;;;2.50;85.50;;;;;;6192493;23;20021;-86
2022/02/12 00:41:29;;;;;;;17.58;8.80;;;2.50;85.60;;;;;;6192000;23;20009;-85
2022/02/12 00:43:55;;;;;;;21.15;9.77;;;2.50;85.60;;;;;;6167567;23;20074;-84
2022/02/12 00:46:20;;;;;;;17.75;9.48;;;2.40;85.60;;;;;;6216897;23;20032;-85
2022/02/12 00:48:46;;;;;;;19.30;9.48;;;2.40;85.60;;;;;;6192263;23;20099;-84
2022/02/12 00:51:13;;;;;;;23.70;8.88;;;2.40;85.70;;;;;;6217019;23;20020;-85
2022/02/12 00:53:39;;;;;;;19.38;8.82;;;2.40;85.70;;;;;;6192590;23;20017;-85
2022/02/12 00:56:05;;;;;;;19.15;8.80;;;2.40;85.80;;;;;;6192495;23;20079;-85
2022/02/12 00:58:31;;;;;;;19.50;8.57;;;2.30;85.80;;;;;;6218669;23;20020;-84
2022/02/12 01:00:56;;;;;;;17.95;9.18;;;2.30;85.80;;;;;;6192395;23;20071;-85
2022/02/12 01:03:22;;;;;;;17.60;8.73;;;2.30;85.90;;;;;;6218474;23;20017;-85
2022/02/12 01:05:48;;;;;;;15.25;8.25;;;2.30;86.00;;;;;;6218865;23;20028;-85
2022/02/12 01:08:14;;;;;;;20.60;9.55;;;2.20;86.00;;;;;;6218253;23;20033;-85
2022/02/12 01:10:39;;;;;;;21.55;10.25;;;2.20;86.00;;;;;;6217382;23;20400;-85
2022/02/12 01:13:05;;;;;;;18.13;8.40;;;2.20;86.10;;;;;;6218860;23;20455;-84
2022/02/12 01:15:34;;;;;;;19.33;8.65;;;2.20;86.20;;;;;;6191560;23;20020;-85
2022/02/12 01:18:00;;;;;;;21.38;9.73;;;2.20;86.30;;;;;;6192886;23;20088;-84
2022/02/12 01:20:26;;;;;;;20.80;9.05;;;2.20;86.30;;;;;;6167371;23;20021;-84
2022/02/12 01:22:52;;;;;;;21.40;9.35;;;2.20;86.30;;;;;;6191055;23;20312;-85
2022/02/12 01:25:17;;;;;;;16.17;8.65;;;2.10;86.30;;;;;;6193957;23;20013;-85
2022/02/12 01:27:45;;;;;;;19.13;9.20;;;2.10;86.30;;;;;;6191106;23;20023;-81
2022/02/12 01:30:11;;;;;;;19.42;8.70;;;2.10;86.40;;;;;;6197531;23;20046;-81
2022/02/12 01:32:37;;;;;;;17.65;8.88;;;2.10;86.50;;;;;;6200701;23;20159;-82
2022/02/12 01:35:04;;;;;;;13.82;8.25;;;2.00;86.40;;;;;;6174176;23;20199;-81
2022/02/12 01:37:30;;;;;;;17.45;9.05;;;2.00;86.40;;;;;;6220028;23;20016;-81
2022/02/12 01:39:55;;;;;;;17.70;8.68;;;2.00;87.20;;;;;;6167068;23;20066;-81
2022/02/12 01:42:21;;;;;;;17.40;7.88;;;2.00;86.50;;;;;;6191895;23;20021;-86
2022/02/12 01:44:47;;;;;;;12.98;7.97;;;2.00;86.60;;;;;;6192029;23;20461;-83
2022/02/12 01:47:13;;;;;;;16.92;8.80;;;1.90;86.60;;;;;;6223937;23;20024;-81
2022/02/12 01:49:40;;;;;;;21.30;9.20;;;1.90;86.60;;;;;;6198399;23;20098;-82
2022/02/12 01:52:10;;;;;;;19.95;9.07;;;1.90;86.80;;;;;;6196463;23;20016;-82
2022/02/12 01:54:35;;;;;;;14.55;9.80;;;1.90;86.80;;;;;;6191421;23;20317;-81
2022/02/12 01:57:02;;;;;;;20.38;10.57;;;1.90;86.90;;;;;;6190038;23;20114;-82
2022/02/12 01:59:28;;;;;;;15.07;8.90;;;1.80;86.90;;;;;;6165380;23;20075;-82
2022/02/12 02:01:54;;;;;;;17.58;8.55;;;1.80;86.90;;;;;;6216173;23;20017;-82
2022/02/12 02:04:19;;;;;;;19.40;10.43;;;1.80;86.90;;;;;;6191020;23;20100;-82
2022/02/12 02:06:47;;;;;;;16.70;9.13;;;1.80;87.00;;;;;;6165661;23;20024;-82
2022/02/12 02:09:16;;;;;;;25.42;10.90;;;1.90;87.20;;;;;;6189775;23;20458;-82
2022/02/12 02:11:41;;;;;;;18.65;8.95;;;1.80;87.10;;;;;;6142091;23;20016;-81
2022/02/12 02:14:07;;;;;;;18.60;8.55;;;1.80;87.20;;;;;;6191185;23;20023;-82
2022/02/12 02:16:33;;;;;;;16.80;9.15;;;1.80;87.20;;;;;;6192223;23;20060;-81
2022/02/12 02:18:59;;;;;;;20.65;9.18;;;1.70;87.20;;;;;;6224529;23;20017;-82
2022/02/12 02:21:25;;;;;;;17.77;8.90;;;1.70;88.00;;;;;;6201003;23;20016;-88
2022/02/12 02:23:50;;;;;;;17.63;9.07;;;1.70;87.20;;;;;;6176807;23;20498;-82
2022/02/12 02:26:16;;;;;;;16.90;8.98;;;1.70;87.30;;;;;;6196575;23;20017;-82
2022/02/12 02:28:42;;;;;;;23.17;9.90;;;1.70;87.30;;;;;;6192082;23;20029;-82
2022/02/12 02:31:08;;;;;;;20.30;9.20;;;1.70;87.30;;;;;;6216538;23;20070;-84
2022/02/12 02:33:34;;;;;;;24.08;8.55;;;1.70;87.40;;;;;;6189272;23;20020;-81
2022/02/12 02:35:59;;;;;;;23.30;8.90;;;1.60;87.40;;;;;;6190125;23;20019;-83
2022/02/12 02:38:25;;;;;;;17.65;8.85;;;1.60;87.50;;;;;;6189112;23;20020;-82
2022/02/12 02:40:54;;;;;;;18.02;8.25;;;1.60;87.60;;;;;;6189458;23;20024;-82
2022/02/12 02:43:21;;;;;;;17.08;7.57;;;1.60;87.50;;;;;;6214921;23;20025;-81
2022/02/12 02:45:46;;;;;;;20.02;9.02;;;1.60;87.60;;;;;;6214548;23;20040;-81
2022/02/12 02:48:12;;;;;;;18.90;8.05;;;1.60;87.70;;;;;;6216412;23;20008;-81
2022/02/12 02:56:10;;;;;;;16.35;7.18;;;1.60;87.80;;;;;;6190488;23;20020;-82
2022/02/12 02:58:41;;;;;;;16.77;7.60;;;1.60;87.80;;;;;;6189579;23;20099;-81
2022/02/12 03:01:09;;;;;;;16.40;7.15;;;1.60;87.80;;;;;;6165542;23;20025;-82
2022/02/12 03:03:35;;;;;;;18.75;7.65;;;1.60;87.90;;;;;;6214943;23;20435;-82
2022/02/12 03:06:00;;;;;;;16.48;6.90;;;1.60;87.90;;;;;;6215375;23;20079;-82
2022/02/12 03:08:26;;;;;;;15.60;8.30;;;1.50;87.90;;;;;;6214746;23;20419;-81
2022/02/12 03:10:57;;;;;;;13.43;7.88;;;1.50;88.00;;;;;;6165466;23;20103;-82
2022/02/12 03:13:23;;;;;;;18.98;7.97;;;1.50;87.90;;;;;;6189922;23;20013;-81
2022/02/12 03:15:49;;;;;;;19.20;8.90;;;1.50;88.00;;;;;;6215025;23;20327;-82
2022/02/12 03:18:14;;;;;;;22.05;9.05;;;1.50;88.00;;;;;;6189320;23;20378;-82
2022/02/12 03:20:40;;;;;;;17.58;8.10;;;1.50;88.00;;;;;;6214540;23;20028;-81
2022/02/12 03:23:06;;;;;;;19.25;8.50;;;1.50;88.00;;;;;;6189771;23;20019;-81
2022/02/12 03:25:32;;;;;;;17.95;8.40;;;1.50;88.10;;;;;;6189395;23;20021;-81
2022/02/12 03:28:02;;;;;;;18.27;9.02;;;1.50;88.10;;;;;;6215646;23;20023;-81
2022/02/12 03:30:33;;;;;;;25.27;9.32;;;1.50;88.10;;;;;;6214721;23;20052;-82
2022/02/12 03:32:58;;;;;;;16.25;9.20;;;1.50;88.10;;;;;;6189201;23;20020;-82
2022/02/12 03:35:26;;;;;;;17.20;8.75;;;1.40;88.10;;;;;;6215571;23;20099;-82
2022/02/12 03:37:53;;;;;;;18.55;9.20;;;1.40;88.10;;;;;;6164923;23;20027;-81
2022/02/12 03:40:19;;;;;;;21.75;9.25;;;1.50;88.20;;;;;;6216601;23;20027;-82
2022/02/12 03:42:45;;;;;;;17.90;9.48;;;1.40;88.10;;;;;;6188074;23;20025;-82
2022/02/12 03:45:10;;;;;;;21.20;9.45;;;1.40;88.90;;;;;;6214437;23;20096;-81
2022/02/12 03:47:36;;;;;;;27.08;10.25;;;1.40;88.20;;;;;;6164775;23;20091;-81
2022/02/12 03:50:03;;;;;;;19.48;9.57;;;1.40;88.20;;;;;;6115140;23;20074;-81
2022/02/12 03:52:29;;;;;;;17.70;8.57;;;1.40;88.30;;;;;;6139452;23;20095;-81
2022/02/12 03:54:54;;;;;;;20.98;8.80;;;1.40;88.30;;;;;;6213375;23;20474;-81
2022/02/12 03:57:20;;;;;;;15.77;9.68;;;1.40;88.30;;;;;;6189076;23;20016;-81
2022/02/12 03:59:45;;;;;;;18.30;8.73;;;1.40;88.30;;;;;;6188756;23;20016;-82
2022/02/12 04:02:11;;;;;;;17.42;8.43;;;1.30;88.30;;;;;;6214425;23;20055;-82
2022/02/12 04:04:37;;;;;;;20.08;8.65;;;1.40;88.40;;;;;;6189207;23;20031;-82
2022/02/12 04:07:03;;;;;;;21.52;9.35;;;1.30;88.40;;;;;;6188966;23;20059;-82
2022/02/12 04:09:29;;;;;;;18.85;9.07;;;1.30;88.40;;;;;;6189309;23;20095;-82
2022/02/12 04:11:55;;;;;;;19.52;9.10;;;1.30;88.40;;;;;;6163777;23;20431;-84
2022/02/12 04:14:21;;;;;;;25.95;10.23;;;1.30;88.40;;;;;;6183540;23;20097;-81
2022/02/12 04:16:46;;;;;;;22.50;10.60;;;1.30;88.50;;;;;;6186025;23;20079;-82
2022/02/12 04:19:12;;;;;;;21.23;10.25;;;1.30;88.50;;;;;;6160100;23;20112;-82
2022/02/12 04:21:38;;;;;;;22.40;10.38;;;1.30;88.60;;;;;;6160295;23;20057;-80
2022/02/12 04:24:04;;;;;;;17.13;9.35;;;1.30;88.60;;;;;;6184222;23;20087;-81
2022/02/12 04:26:30;;;;;;;20.75;10.30;;;1.30;88.60;;;;;;6185266;23;20032;-81
2022/02/12 04:28:55;;;;;;;25.05;11.10;;;1.30;88.60;;;;;;6134840;23;20096;-81
2022/02/12 04:31:23;;;;;;;19.83;11.20;;;1.30;88.70;;;;;;6160373;23;20025;-81
2022/02/12 04:33:49;;;;;;;20.88;10.18;;;1.30;88.70;;;;;;6184375;23;20040;-82
2022/02/12 04:36:14;;;;;;;24.17;10.27;;;1.30;88.80;;;;;;6159654;23;20021;-81
2022/02/12 04:38:40;;;;;;;17.80;10.60;;;1.30;88.80;;;;;;6136302;23;20530;-81
2022/02/12 04:41:06;;;;;;;29.60;11.50;;;1.30;88.80;;;;;;6160453;23;20009;-81
2022/02/12 04:43:31;;;;;;;27.25;10.93;;;1.20;88.80;;;;;;6161344;23;20023;-81
2022/02/12 04:45:57;;;;;;;23.90;10.90;;;1.20;88.80;;;;;;6160744;23;20059;-81
2022/02/12 04:48:23;;;;;;;17.33;10.68;;;1.30;89.00;;;;;;6185259;23;20396;-81
2022/02/12 04:50:48;;;;;;;20.40;11.18;;;1.30;88.90;;;;;;6185493;23;20009;-86
2022/02/12 04:53:14;;;;;;;21.17;11.40;;;1.20;88.90;;;;;;6210943;23;20028;-81
2022/02/12 04:55:40;;;;;;;26.08;13.05;;;1.20;88.90;;;;;;6210713;23;20447;-81
2022/02/12 04:58:05;;;;;;;25.90;12.48;;;1.20;88.90;;;;;;6160796;23;20502;-81
2022/02/12 05:00:31;;;;;;;25.33;12.80;;;1.20;89.10;;;;;;6161272;23;20325;-81
2022/02/12 05:02:57;;;;;;;26.40;12.40;;;1.20;89.00;;;;;;6160877;23;20021;-82
2022/02/12 05:05:22;;;;;;;24.90;13.90;;;1.20;89.10;;;;;;6185909;23;20040;-82
2022/02/12 05:07:48;;;;;;;21.15;12.65;;;1.20;89.10;;;;;;6112300;23;20021;-84
2022/02/12 05:10:14;;;;;;;27.00;12.93;;;1.20;89.20;;;;;;6185733;23;20072;-81
2022/02/12 05:12:39;;;;;;;31.80;14.48;;;1.20;89.30;;;;;;6211244;23;20017;-82
2022/02/12 05:15:07;;;;;;;20.45;13.40;;;1.20;89.30;;;;;;6160238;23;20462;-81
2022/02/12 05:17:33;;;;;;;23.30;13.38;;;1.20;89.40;;;;;;6185424;23;20025;-81
2022/02/12 05:19:58;;;;;;;24.70;14.63;;;1.20;89.40;;;;;;6160945;23;20021;-81
2022/02/12 05:22:25;;;;;;;24.40;13.60;;;1.20;89.40;;;;;;6136366;23;20076;-82
2022/02/12 05:24:50;;;;;;;32.03;14.45;;;1.20;89.40;;;;;;6160777;23;20028;-82
2022/02/12 05:27:16;;;;;;;26.88;14.57;;;1.20;89.40;;;;;;6160490;23;20013;-81
2022/02/12 05:29:42;;;;;;;30.27;15.20;;;1.20;89.50;;;;;;6136240;23;20013;-81
2022/02/12 05:32:08;;;;;;;26.33;14.57;;;1.20;89.50;;;;;;6159940;23;20019;-81
2022/02/12 05:34:34;;;;;;;27.25;14.57;;;1.20;89.60;;;;;;6161010;23;20094;-81
2022/02/12 05:37:00;;;;;;;24.45;13.90;;;1.20;89.60;;;;;;6186516;23;20093;-82
2022/02/12 05:39:25;;;;;;;30.17;15.20;;;1.20;89.60;;;;;;6135423;23;20028;-82
2022/02/12 05:41:51;;;;;;;28.17;15.55;;;1.20;89.60;;;;;;6185686;23;20017;-81
2022/02/12 05:44:17;;;;;;;25.92;14.85;;;1.20;89.70;;;;;;6160886;23;20098;-81
2022/02/12 05:46:42;;;;;;;27.35;15.75;;;1.20;89.70;;;;;;6160894;23;20055;-81
2022/02/12 05:49:09;;;;;;;23.70;14.05;;;1.20;89.70;;;;;;6184522;23;20017;-81
2022/02/12 05:51:34;;;;;;;24.58;14.52;;;1.20;89.80;;;;;;6185512;23;20393;-81
2022/02/12 05:54:01;;;;;;;36.20;15.93;;;1.20;89.80;;;;;;6184749;23;20056;-82
2022/02/12 05:56:27;;;;;;;27.67;14.77;;;1.20;89.80;;;;;;6161271;23;20100;-81
2022/02/12 05:58:53;;;;;;;27.92;15.60;;;1.20;89.80;;;;;;6160812;23;20017;-81
2022/02/12 06:01:21;;;;;;;28.00;15.85;;;1.20;89.80;;;;;;6159798;23;20327;-82
2022/02/12 06:03:47;;;;;;;26.80;15.55;;;1.20;89.90;;;;;;6210587;23;20021;-81
2022/02/12 06:06:14;;;;;;;25.67;14.85;;;1.20;89.90;;;;;;6184959;23;20021;-82
2022/02/12 06:08:40;;;;;;;27.80;16.35;;;1.20;89.90;;;;;;6160989;23;20017;-82
2022/02/12 06:11:05;;;;;;;23.60;16.35;;;1.20;89.90;;;;;;6160104;23;20017;-82
2022/02/12 06:13:31;;;;;;;26.17;15.70;;;1.20;89.90;;;;;;6185107;23;20099;-82
2022/02/12 06:15:57;;;;;;;29.02;15.95;;;1.20;89.90;;;;;;6185754;23;20032;-82
2022/02/12 06:18:23;;;;;;;23.38;16.75;;;1.20;90.00;;;;;;6209512;23;20048;-82
2022/02/12 06:20:49;;;;;;;28.55;16.55;;;1.20;89.90;;;;;;6210176;23;20052;-81
2022/02/12 06:23:14;;;;;;;33.55;18.17;;;1.10;89.90;;;;;;6184931;23;20024;-81
2022/02/12 06:25:43;;;;;;;29.67;17.30;;;1.20;90.00;;;;;;6185356;23;20040;-81
2022/02/12 06:28:08;;;;;;;24.60;15.45;;;1.10;90.30;;;;;;6136843;23;20028;-82
2022/02/12 06:30:34;;;;;;;24.30;15.30;;;1.20;89.90;;;;;;6160678;23;20444;-81
2022/02/12 06:33:00;;;;;;;26.48;16.48;;;1.10;89.90;;;;;;6160860;23;20340;-81
2022/02/12 06:35:27;;;;;;;26.98;17.25;;;1.10;89.90;;;;;;6185288;23;20013;-81
2022/02/12 06:37:53;;;;;;;28.08;16.48;;;1.10;89.90;;;;;;6161140;23;20021;-82
2022/02/12 06:40:18;;;;;;;30.60;16.85;;;1.10;89.90;;;;;;6185149;23;20017;-82
2022/02/12 06:42:44;;;;;;;29.80;18.20;;;1.10;89.80;;;;;;6161155;23;20443;-80
2022/02/12 06:45:10;;;;;;;27.42;16.05;;;1.10;89.90;;;;;;6185466;23;20025;-82
2022/02/12 06:47:37;;;;;;;26.42;15.98;;;1.10;89.80;;;;;;6160609;23;20021;-81
2022/02/12 06:50:03;;;;;;;26.15;16.33;;;1.10;89.90;;;;;;6187519;23;20100;-83
2022/02/12 06:52:29;;;;;;;31.15;17.48;;;1.10;89.90;;;;;;6162198;23;20017;-81
2022/02/12 06:54:56;;;;;;;21.80;15.40;;;1.10;89.80;;;;;;6185759;23;20024;-81
2022/02/12 06:57:21;;;;;;;30.65;17.67;;;1.10;89.80;;;;;;6160447;23;20017;-81
2022/02/12 06:59:48;;;;;;;29.35;17.38;;;1.10;89.80;;;;;;6160591;23;20021;-81
2022/02/12 07:02:13;;;;;;;27.63;18.00;;;1.10;90.20;;;;;;6160550;23;20021;-81
2022/02/12 07:04:41;;;;;;;24.60;17.30;;;1.10;89.80;;;;;;6161097;23;20021;-81
2022/02/12 07:07:07;;;;;;;36.33;17.63;;;1.10;89.80;;;;;;6185030;23;20083;-82
2022/02/12 07:09:32;;;;;;;31.25;18.08;;;1.10;89.80;;;;;;6160701;23;20095;-80
2022/02/12 07:11:58;;;;;;;27.67;17.00;;;1.10;89.80;;;;;;6160133;23;20474;-81
2022/02/12 07:14:24;;;;;;;27.67;17.77;;;1.10;89.80;;;;;;6184953;23;20017;-81
2022/02/12 07:16:51;;;;;;;28.45;18.50;;;1.00;89.70;;;;;;6184974;23;20035;-81
2022/02/12 07:19:16;;;;;;;30.55;17.83;;;1.10;89.80;;;;;;6160266;23;20368;-81
2022/02/12 07:21:42;;;;;;;30.33;17.20;;;1.10;89.70;;;;;;6186827;23;20108;-81
2022/02/12 07:24:08;;;;;;;27.75;17.88;;;1.10;89.80;;;;;;6159840;23;20017;-83
2022/02/12 07:26:34;;;;;;;25.33;17.60;;;1.10;89.70;;;;;;6185246;23;20024;-81
2022/02/12 07:28:59;;;;;;;32.47;19.35;;;1.10;89.70;;;;;;6135878;23;20031;-81
2022/02/12 07:31:25;;;;;;;26.92;18.80;;;1.10;89.70;;;;;;6184755;23;20013;-81
2022/02/12 07:33:51;;;;;;;27.02;19.42;;;1.10;89.70;;;;;;6185407;23;20071;-81
2022/02/12 07:36:16;;;;;;;28.30;18.88;;;1.10;89.70;;;;;;6160186;23;20068;-81
2022/02/12 07:38:44;;;;;;;31.98;18.90;;;1.10;89.80;;;;;;6185542;23;20540;-81
2022/02/12 07:41:16;;;;;;;27.38;19.45;;;1.10;89.80;;;;;;6160947;23;20340;-84
2022/02/12 07:43:42;;;;;;;30.43;20.77;;;1.10;89.80;;;;;;6161696;23;20090;-81
2022/02/12 07:46:08;;;;;;;33.00;20.13;;;1.20;89.90;;;;;;6136456;23;20021;-81
2022/02/12 07:48:33;;;;;;;32.58;19.95;;;1.20;89.90;;;;;;6184791;23;20079;-81
2022/02/12 07:50:59;;;;;;;31.85;19.30;;;1.20;89.90;;;;;;6136013;23;20027;-81
2022/02/12 07:53:25;;;;;;;32.47;21.38;;;1.20;90.00;;;;;;6185124;23;20017;-81
2022/02/12 07:55:50;;;;;;;33.10;21.55;;;1.20;90.00;;;;;;6185859;23;20032;-82
2022/02/12 07:58:16;;;;;;;33.75;21.13;;;1.20;90.00;;;;;;6160524;23;20021;-82
2022/02/12 08:00:42;;;;;;;26.67;19.48;;;1.20;90.00;;;;;;6185746;23;20080;-81
2022/02/12 08:03:08;;;;;;;32.92;21.00;;;1.20;90.00;;;;;;6210578;23;20027;-81
2022/02/12 08:05:33;;;;;;;32.75;20.67;;;1.30;90.00;;;;;;6160442;23;20033;-81
2022/02/12 08:08:05;;;;;;;31.23;19.52;;;1.30;90.00;;;;;;6185759;23;20013;-81
2022/02/12 08:13:35;;;;;;;33.10;19.25;;;1.30;90.00;;;;;;6043575;23;20089;-82
2022/02/12 08:16:01;;;;;;;29.75;19.77;;;1.30;90.00;;;;;;6045016;23;20066;-82
2022/02/12 08:18:26;;;;;;;23.15;17.98;;;1.40;90.00;;;;;;6141260;23;20032;-82
2022/02/12 08:20:52;;;;;;;30.48;19.23;;;1.40;90.00;;;;;;6209184;23;20005;-82
2022/02/12 08:23:18;;;;;;;27.70;18.05;;;1.40;90.10;;;;;;6161954;23;20036;-88
2022/02/12 08:25:45;;;;;;;30.30;17.90;;;1.40;90.10;;;;;;6184718;23;20032;-82
2022/02/12 08:28:10;;;;;;;26.33;19.33;;;1.50;90.10;;;;;;6144870;23;20059;-81
2022/02/12 08:30:36;;;;;;;28.52;17.30;;;1.50;90.10;;;;;;6215165;23;20021;-81
2022/02/12 08:33:02;;;;;;;30.80;18.25;;;1.50;90.10;;;;;;6166913;23;20052;-83
2022/02/12 08:35:27;;;;;;;29.77;17.40;;;1.60;90.10;;;;;;6231505;23;20043;-82
2022/02/12 08:37:53;;;;;;;28.20;17.92;;;1.60;90.10;;;;;;6185242;23;20032;-87
2022/02/12 08:40:19;;;;;;;27.38;16.67;;;1.60;90.10;;;;;;6208382;23;20081;-83
2022/02/12 08:42:46;;;;;;;30.13;17.60;;;1.70;90.10;;;;;;6195981;23;20013;-82
2022/02/12 08:45:11;;;;;;;29.58;17.02;;;1.60;90.00;;;;;;6141925;23;20017;-84
2022/02/12 08:47:37;;;;;;;25.58;17.08;;;1.80;90.00;;;;;;6162730;23;20099;-90
2022/02/12 08:50:04;;;;;;;30.48;15.48;;;1.80;90.10;;;;;;6189662;23;20017;-91
2022/02/12 08:52:29;;;;;;;26.38;15.77;;;1.80;90.00;;;;;;6165485;23;20021;-89
2022/02/12 08:54:55;;;;;;;24.80;15.30;;;1.80;90.10;;;;;;6185156;23;20087;-80
2022/02/12 08:57:21;;;;;;;23.30;14.95;;;1.80;90.00;;;;;;6185164;23;20017;-80
2022/02/12 08:59:46;;;;;;;23.00;14.93;;;1.90;90.10;;;;;;6184546;23;20040;-83
2022/02/12 09:02:12;;;;;;;26.58;14.57;;;2.00;90.10;;;;;;6160243;23;20099;-80
2022/02/12 09:04:39;;;;;;;22.48;13.85;;;2.00;90.00;;;;;;6161550;23;20028;-81
2022/02/12 09:07:05;;;;;;;25.17;13.80;;;2.00;90.00;;;;;;6153052;23;20053;-81
2022/02/12 09:09:30;;;;;;;27.55;13.55;;;2.00;90.00;;;;;;6182413;23;20032;-81
2022/02/12 09:11:57;;;;;;;20.95;12.68;;;2.10;90.00;;;;;;6206746;23;20017;-81
2022/02/12 09:14:23;;;;;;;23.60;13.38;;;2.10;90.00;;;;;;6167280;23;20151;-83
2022/02/12 09:16:49;;;;;;;21.77;12.52;;;2.10;90.00;;;;;;6160609;23;20025;-79
2022/02/12 09:19:15;;;;;;;22.05;11.93;;;2.20;90.00;;;;;;6185429;23;20021;-79
2022/02/12 09:21:41;;;;;;;19.75;13.00;;;2.20;90.00;;;;;;6182852;23;20025;-78
2022/02/12 09:24:07;;;;;;;25.50;12.85;;;2.20;89.90;;;;;;6134288;23;20068;-78
2022/02/12 09:26:33;;;;;;;22.95;12.45;;;2.20;89.80;;;;;;6158033;23;20020;-78
2022/02/12 09:29:03;;;;;;;24.00;11.73;;;2.30;89.80;;;;;;6157834;23;20060;-78
2022/02/12 09:31:29;;;;;;;19.02;11.20;;;2.40;89.70;;;;;;6157639;23;20053;-78
2022/02/12 09:33:54;;;;;;;17.90;11.05;;;2.40;89.60;;;;;;6134302;23;20020;-79
2022/02/12 09:36:20;;;;;;;20.80;10.52;;;2.50;89.60;;;;;;6158044;23;20124;-82
2022/02/12 09:38:46;;;;;;;21.98;11.52;;;2.50;89.50;;;;;;6183679;23;20013;-79
2022/02/12 09:41:15;;;;;;;20.83;10.07;;;2.60;89.50;;;;;;6183298;23;20021;-80
2022/02/12 09:43:41;;;;;;;24.85;11.65;;;2.70;89.50;;;;;;6207298;23;20520;-79
2022/02/12 09:46:30;;;;;;;25.02;12.18;;;2.60;89.30;;;;;;6159271;23;20025;-80
2022/02/12 09:48:56;;;;;;;19.35;11.02;;;2.70;89.30;;;;;;6182455;23;20016;-78
2022/02/12 09:51:26;;;;;;;25.75;11.48;;;2.70;89.20;;;;;;6133744;23;20021;-82
2022/02/12 09:53:52;;;;;;;19.33;10.70;;;2.80;89.20;;;;;;6158254;23;20044;-79
2022/02/12 09:56:18;;;;;;;24.50;11.80;;;2.80;89.20;;;;;;6208485;23;20451;-79
2022/02/12 09:58:44;;;;;;;18.45;10.52;;;2.80;89.30;;;;;;6133532;23;20024;-78
2022/02/12 10:01:09;;;;;;;24.33;11.45;;;2.90;89.30;;;;;;6134381;23;20024;-78
2022/02/12 10:03:38;;;;;;;21.40;11.05;;;3.00;89.40;;;;;;6158482;23;20017;-79
2022/02/12 10:06:03;;;;;;;19.50;10.43;;;3.00;89.30;;;;;;6183136;23;20023;-80
2022/02/12 10:08:29;;;;;;;22.17;10.90;;;3.10;89.40;;;;;;6158308;23;20024;-80
2022/02/12 10:10:55;;;;;;;23.77;11.85;;;3.20;89.50;;;;;;6134389;23;20020;-79
2022/02/12 10:13:22;;;;;;;21.83;11.13;;;3.30;89.50;;;;;;6186129;23;20412;-79
2022/02/12 10:15:54;;;;;;;22.70;11.52;;;3.50;89.60;;;;;;6188743;23;20031;-79
2022/02/12 10:18:24;;;;;;;16.42;10.55;;;3.50;89.40;;;;;;6141540;23;20020;-82
2022/02/12 10:20:51;;;;;;;21.50;10.07;;;3.70;89.20;;;;;;6115943;23;20308;-78
2022/02/12 10:23:24;;;;;;;18.40;11.00;;;3.80;89.10;;;;;;6138894;23;20075;-78
2022/02/12 10:25:52;;;;;;;24.90;10.68;;;4.00;88.70;;;;;;6187748;23;20020;-79
2022/02/12 10:28:18;;;;;;;24.05;10.05;;;4.10;88.50;;;;;;6162660;23;20017;-78
2022/02/12 10:30:45;;;;;;;21.90;9.95;;;4.20;88.40;;;;;;6187258;23;20119;-77
2022/02/12 10:33:10;;;;;;;22.35;11.32;;;4.40;88.20;;;;;;6163002;23;20039;-78
2022/02/12 10:35:37;;;;;;;20.02;9.38;;;4.50;88.10;;;;;;6161685;23;20013;-77
2022/02/12 10:38:07;;;;;;;20.35;9.70;;;4.70;88.10;;;;;;6187902;23;20346;-78
2022/02/12 10:40:34;;;;;;;16.77;9.40;;;4.90;87.90;;;;;;6162366;23;20016;-81
2022/02/12 10:42:59;;;;;;;16.90;9.95;;;5.00;87.60;;;;;;6188039;23;20021;-78
2022/02/12 10:45:26;;;;;;;19.90;10.38;;;5.20;87.50;;;;;;6212383;23;20028;-77
2022/02/12 10:47:53;;;;;;;19.55;8.45;;;5.40;87.30;;;;;;6162609;23;20699;-78
2022/02/12 10:50:19;;;;;;;20.05;8.70;;;5.60;86.80;;;;;;6212432;23;20525;-79
2022/02/12 10:52:50;;;;;;;20.92;9.15;;;5.70;86.70;;;;;;6186680;23;20106;-78
2022/02/12 10:55:36;;;;;;;19.20;8.68;;;5.80;86.60;;;;;;6188483;23;20399;-79
2022/02/12 10:58:03;;;;;;;17.25;8.20;;;6.10;86.60;;;;;;6188250;23;20447;-80
2022/02/12 11:00:30;;;;;;;18.70;9.57;;;6.20;86.00;;;;;;6213295;23;20016;-80
2022/02/12 11:02:56;;;;;;;19.88;8.55;;;6.40;85.60;;;;;;6162781;23;20013;-80
2022/02/12 11:05:25;;;;;;;22.25;8.75;;;6.60;85.40;;;;;;6213914;23;20039;-80
2022/02/12 11:07:51;;;;;;;18.00;8.77;;;6.70;84.80;;;;;;6188087;23;20021;-80
2022/02/12 11:10:17;;;;;;;18.77;8.40;;;6.80;84.20;;;;;;6212370;23;20027;-81
2022/02/12 11:12:43;;;;;;;15.18;7.93;;;7.00;84.00;;;;;;6187898;23;20028;-81
2022/02/12 11:15:10;;;;;;;17.75;8.80;;;7.30;84.00;;;;;;6188714;23;20020;-80
2022/02/12 11:17:35;;;;;;;16.75;7.28;;;7.70;83.80;;;;;;6162524;23;20348;-80
2022/02/12 11:20:02;;;;;;;14.23;7.38;;;7.90;82.50;;;;;;6212475;23;20021;-81
2022/02/12 11:22:28;;;;;;;19.05;8.40;;;8.00;81.70;;;;;;6212768;23;20343;-81
2022/02/12 11:24:54;;;;;;;17.55;7.63;;;8.20;80.80;;;;;;6162182;23;20025;-81
2022/02/12 11:27:27;;;;;;;17.27;7.70;;;8.40;80.40;;;;;;6186622;23;20027;-80
2022/02/12 11:29:57;;;;;;;17.35;8.77;;;8.60;79.60;;;;;;6187302;23;20051;-81
2022/02/12 11:32:26;;;;;;;15.40;7.47;;;8.90;79.10;;;;;;6187704;23;20032;-79
2022/02/12 11:34:55;;;;;;;20.73;8.10;;;9.50;78.10;;;;;;6162742;23;20020;-80
2022/02/12 11:37:21;;;;;;;18.23;7.65;;;10.30;76.00;;;;;;6186645;23;20032;-78
2022/02/12 11:42:45;;;;;;;16.25;8.10;;;12.40;71.50;;;;;;6182928;23;20033;-83
2022/02/12 11:45:36;;;;;;;19.73;7.38;;;13.30;66.50;;;;;;6188250;23;20035;-85
2022/02/12 11:48:25;;;;;;;19.50;8.32;;;14.10;63.10;;;;;;6215662;23;20138;-79
2022/02/12 11:51:10;;;;;;;16.42;6.72;;;14.80;61.50;;;;;;6189162;23;20047;-80
2022/02/12 11:53:39;;;;;;;20.77;7.72;;;15.50;60.00;;;;;;6140958;23;20078;-81
2022/02/12 11:56:22;;;;;;;17.33;7.78;;;16.10;58.00;;;;;;6189784;23;20013;-82
2022/02/12 11:59:09;;;;;;;17.10;6.70;;;16.80;58.30;;;;;;6217142;23;20016;-83
2022/02/12 12:01:38;;;;;;;15.95;7.05;;;17.30;56.40;;;;;;6166724;23;20020;-83
2022/02/12 12:04:16;;;;;;;14.82;6.70;;;17.60;55.50;;;;;;6191039;23;20012;-83
2022/02/12 12:07:11;;;;;;;17.08;7.13;;;18.10;54.20;;;;;;6191816;23;20056;-85
2022/02/12 12:10:06;;;;;;;12.07;6.85;;;18.50;51.70;;;;;;6190856;23;20071;-84
2022/02/12 12:12:32;;;;;;;13.57;6.65;;;18.70;49.80;;;;;;6140186;23;20650;-82
2022/02/12 12:15:17;;;;;;;18.13;6.85;;;19.00;50.50;;;;;;6165683;23;20032;-83
2022/02/12 12:17:43;;;;;;;11.90;6.53;;;19.50;47.90;;;;;;6191328;23;20455;-83
2022/02/12 12:20:12;;;;;;;17.88;6.68;;;19.80;49.20;;;;;;6166601;23;20017;-82
2022/02/12 12:22:38;;;;;;;14.35;6.50;;;20.00;47.40;;;;;;6165485;23;20403;-78
2022/02/12 12:25:04;;;;;;;15.88;7.35;;;20.10;46.70;;;;;;6188947;23;20143;-78
2022/02/12 12:27:32;;;;;;;14.23;6.57;;;20.20;45.70;;;;;;6190831;23;20028;-81
2022/02/12 12:32:59;;;;;;;13.52;6.90;;;20.80;43.40;;;;;;6168652;23;20384;-84
2022/02/12 12:35:25;;;;;;;13.23;6.50;;;20.90;44.40;;;;;;6215991;23;20078;-85
2022/02/12 12:37:53;;;;;;;15.27;7.15;;;21.00;43.50;;;;;;6165792;23;20020;-83
2022/02/12 12:40:30;;;;;;;15.43;6.72;;;21.10;43.10;;;;;;6191124;23;20513;-81
2022/02/12 12:43:00;;;;;;;14.07;6.20;;;21.20;41.40;;;;;;6162951;23;20063;-81
2022/02/12 12:45:26;;;;;;;13.88;6.18;;;21.10;41.60;;;;;;6188611;23;20028;-80
2022/02/12 12:47:52;;;;;;;13.25;6.43;;;21.00;41.60;;;;;;6163822;23;20024;-85
2022/02/12 12:50:18;;;;;;;14.23;5.97;;;20.90;41.30;;;;;;6164293;23;20478;-84
2022/02/12 12:52:43;;;;;;;12.13;5.93;;;20.70;41.10;;;;;;6189379;23;20020;-83